createdAt,value
2023-05-17T00:02:02.654Z,2.80
2023-05-17T00:04:30.896Z,2.77
2023-05-17T00:06:59.113Z,2.93
2023-05-17T00:09:27.337Z,3.20
2023-05-17T00:11:55.542Z,2.87
2023-05-17T00:14:25.115Z,3.07
2023-05-17T00:16:53.531Z,2.73
2023-05-17T00:19:21.837Z,2.83
2023-05-17T00:21:50.078Z,2.50
2023-05-17T00:24:18.309Z,3.00
2023-05-17T00:26:46.501Z,2.77
2023-05-17T00:29:14.686Z,3.30
2023-05-17T00:31:44.279Z,3.07
2023-05-17T00:34:12.461Z,2.93
2023-05-17T00:36:40.656Z,2.83
2023-05-17T00:39:08.999Z,3.10
2023-05-17T00:41:37.226Z,2.80
2023-05-17T00:44:05.514Z,3.40
2023-05-17T00:46:33.809Z,3.03
2023-05-17T00:49:03.503Z,3.40
2023-05-17T00:51:32.169Z,3.60
2023-05-17T00:54:00.691Z,3.63
2023-05-17T00:56:29.040Z,3.80
2023-05-17T00:58:57.246Z,3.93
2023-05-17T01:01:25.559Z,4.40
2023-05-17T01:03:53.923Z,4.40
2023-05-17T01:06:23.699Z,4.33
2023-05-17T01:08:52.168Z,4.70
2023-05-17T01:11:23.713Z,4.03
2023-05-17T01:13:55.178Z,4.07
2023-05-17T01:16:27.249Z,4.80
2023-05-17T01:19:00.457Z,4.80
2023-05-17T01:21:52.979Z,4.50
2023-05-17T01:24:31.887Z,3.87
2023-05-17T01:27:02.155Z,3.70
2023-05-17T01:29:30.771Z,4.73
2023-05-17T01:31:59.420Z,4.27
2023-05-17T01:34:27.857Z,4.07
2023-05-17T01:36:57.570Z,4.20
2023-05-17T01:39:25.901Z,3.80
2023-05-17T01:41:59.316Z,4.50
2023-05-17T01:44:33.471Z,4.20
2023-05-17T01:47:04.179Z,4.27
2023-05-17T01:49:33.104Z,4.57
2023-05-17T01:52:06.419Z,3.63
2023-05-17T01:54:38.714Z,4.20
2023-05-17T01:57:08.473Z,4.17
2023-05-17T01:59:39.863Z,4.37
2023-05-17T02:02:09.135Z,4.07
2023-05-17T02:04:37.616Z,4.23
2023-05-17T02:07:06.067Z,4.37
2023-05-17T02:09:34.299Z,4.70
2023-05-17T02:12:02.505Z,4.13
2023-05-17T02:14:30.758Z,4.23
2023-05-17T02:17:00.505Z,4.63
2023-05-17T02:19:28.858Z,4.93
2023-05-17T02:21:57.132Z,4.87
2023-05-17T02:24:25.361Z,5.13
2023-05-17T02:26:53.597Z,4.73
2023-05-17T02:29:21.864Z,4.43
2023-05-17T02:31:50.112Z,4.50
2023-05-17T02:34:19.632Z,4.63
2023-05-17T02:36:48.527Z,4.60
2023-05-17T02:39:16.715Z,5.17
2023-05-17T02:41:44.947Z,5.60
2023-05-17T02:44:13.172Z,5.23
2023-05-17T02:46:41.393Z,5.97
2023-05-17T02:49:09.636Z,5.27
2023-05-17T02:51:39.186Z,5.23
2023-05-17T02:54:07.813Z,5.07
2023-05-17T02:56:36.006Z,5.33
2023-05-17T02:59:04.253Z,5.90
2023-05-17T03:01:32.469Z,4.93
2023-05-17T03:04:00.957Z,6.30
2023-05-17T03:06:29.442Z,5.53
2023-05-17T03:08:58.987Z,6.13
2023-05-17T03:11:27.204Z,5.87
2023-05-17T03:13:55.413Z,5.90
2023-05-17T03:16:23.660Z,6.43
2023-05-17T03:18:51.957Z,6.13
2023-05-17T03:21:20.342Z,6.73
2023-05-17T03:23:48.513Z,6.20
2023-05-17T03:26:19.137Z,7.53
2023-05-17T03:28:47.359Z,6.40
2023-05-17T03:31:15.592Z,6.83
2023-05-17T03:33:44.073Z,6.93
2023-05-17T03:36:12.364Z,5.93
2023-05-17T03:38:40.607Z,6.77
2023-05-17T03:41:08.812Z,6.97
2023-05-17T03:43:38.383Z,6.23
2023-05-17T03:46:06.578Z,7.43
2023-05-17T03:48:36.338Z,6.90
2023-05-17T03:51:04.852Z,8.00
2023-05-17T03:53:33.046Z,7.80
2023-05-17T03:56:01.371Z,8.00
2023-05-17T03:58:29.557Z,7.73
2023-05-17T04:00:59.131Z,9.03
2023-05-17T04:03:27.424Z,10.27
2023-05-17T04:05:55.755Z,9.20
2023-05-17T04:08:23.949Z,9.30
2023-05-17T04:10:52.118Z,11.27
2023-05-17T04:13:20.816Z,11.20
2023-05-17T04:15:49.049Z,12.03
2023-05-17T04:18:18.692Z,12.07
2023-05-17T04:20:46.984Z,11.80
2023-05-17T04:23:15.209Z,10.30
2023-05-17T04:25:43.410Z,11.23
2023-05-17T04:28:11.607Z,11.17
2023-05-17T04:30:43.724Z,11.17
2023-05-17T04:33:14.019Z,10.80
2023-05-17T04:35:44.261Z,10.13
2023-05-17T04:38:12.488Z,10.73
2023-05-17T04:40:40.775Z,11.03
2023-05-17T04:43:09.005Z,10.53
2023-05-17T04:45:37.727Z,10.40
2023-05-17T04:48:06.325Z,10.70
2023-05-17T04:50:34.651Z,9.73
2023-05-17T04:53:04.193Z,10.00
2023-05-17T04:55:32.426Z,10.60
2023-05-17T04:58:00.699Z,10.23
2023-05-17T05:00:28.906Z,10.10
2023-05-17T05:02:57.149Z,9.87
2023-05-17T05:05:25.657Z,9.03
2023-05-17T05:07:54.001Z,9.23
2023-05-17T05:10:23.714Z,9.53
2023-05-17T05:12:51.956Z,9.60
2023-05-17T05:15:20.282Z,9.77
2023-05-17T05:17:48.716Z,8.90
2023-05-17T05:20:17.345Z,9.90
2023-05-17T05:22:45.750Z,9.30
2023-05-17T05:25:13.953Z,10.00
2023-05-17T05:27:43.518Z,9.50
2023-05-17T05:30:12.268Z,9.80
2023-05-17T05:32:40.589Z,9.77
2023-05-17T05:35:09.221Z,9.93
2023-05-17T05:37:37.433Z,8.73
2023-05-17T05:40:05.977Z,9.07
2023-05-17T05:42:34.174Z,8.47
2023-05-17T05:45:03.859Z,8.97
2023-05-17T05:47:32.086Z,8.77
2023-05-17T05:50:00.328Z,8.60
2023-05-17T05:52:28.529Z,8.00
2023-05-17T05:54:56.914Z,7.97
2023-05-17T05:57:25.153Z,8.70
2023-05-17T05:59:53.345Z,8.17
2023-05-17T06:02:22.966Z,7.93
2023-05-17T06:04:51.277Z,9.00
2023-05-17T06:07:19.821Z,8.63
2023-05-17T06:09:48.046Z,8.87
2023-05-17T06:12:16.534Z,8.27
2023-05-17T06:14:44.809Z,7.73
2023-05-17T06:17:13.043Z,8.90
2023-05-17T06:19:42.606Z,7.60
2023-05-17T06:22:10.800Z,7.63
2023-05-17T06:24:39.029Z,7.53
2023-05-17T06:27:07.671Z,8.20
2023-05-17T06:29:36.366Z,8.33
2023-05-17T06:32:04.606Z,8.13
2023-05-17T06:34:32.826Z,7.90
2023-05-17T06:37:02.462Z,7.80
2023-05-17T06:39:30.665Z,7.67
2023-05-17T06:41:58.869Z,7.87
2023-05-17T06:44:27.056Z,7.97
2023-05-17T06:46:56.651Z,7.67
2023-05-17T06:49:24.873Z,8.90
2023-05-17T06:51:55.659Z,11.53
2023-05-17T06:54:25.215Z,14.10
2023-05-17T06:56:53.430Z,13.53
2023-05-17T06:59:21.632Z,11.70
2023-05-17T07:01:49.835Z,10.47
2023-05-17T07:04:18.139Z,9.93
2023-05-17T07:06:46.727Z,9.53
2023-05-17T07:09:15.118Z,9.93
2023-05-17T07:11:44.678Z,9.03
2023-05-17T07:14:14.908Z,8.20
2023-05-17T07:16:43.163Z,8.53
2023-05-17T07:19:11.557Z,8.00
2023-05-17T07:21:39.846Z,8.03
2023-05-17T07:24:09.482Z,7.57
2023-05-17T07:26:37.709Z,6.00
2023-05-17T07:29:07.314Z,6.40
2023-05-17T07:31:35.519Z,5.07
2023-05-17T07:34:03.823Z,4.53
2023-05-17T07:36:32.119Z,5.10
2023-05-17T07:39:00.587Z,5.77
2023-05-17T07:41:28.778Z,5.40
2023-05-17T07:43:57.001Z,5.57
2023-05-17T07:46:26.587Z,6.60
2023-05-17T07:48:58.161Z,6.03
2023-05-17T07:51:27.064Z,6.10
2023-05-17T07:53:55.277Z,6.13
2023-05-17T07:56:23.484Z,9.50
2023-05-17T07:58:51.686Z,7.63
2023-05-17T08:01:19.907Z,5.10
2023-05-17T08:03:49.452Z,6.20
2023-05-17T08:06:17.739Z,5.63
2023-05-17T08:08:46.214Z,5.47
2023-05-17T08:11:14.965Z,5.10
2023-05-17T08:13:44.186Z,3.93
2023-05-17T08:16:14.104Z,4.23
2023-05-17T08:18:43.621Z,4.53
2023-05-17T08:21:13.547Z,4.93
2023-05-17T08:23:42.657Z,7.33
2023-05-17T08:26:12.479Z,4.33
2023-05-17T08:28:40.815Z,6.60
2023-05-17T08:31:09.018Z,3.80
2023-05-17T08:33:37.433Z,3.93
2023-05-17T08:36:08.026Z,3.70
2023-05-17T08:38:37.672Z,3.73
2023-05-17T08:41:06.005Z,4.50
2023-05-17T08:43:34.250Z,3.47
2023-05-17T08:46:04.155Z,3.43
2023-05-17T08:48:32.889Z,3.30
2023-05-17T08:51:01.453Z,3.43
2023-05-17T08:53:30.517Z,3.30
2023-05-17T08:56:01.421Z,3.10
2023-05-17T08:58:38.461Z,2.83
2023-05-17T09:01:13.773Z,3.27
2023-05-17T09:03:42.975Z,3.10
2023-05-17T09:06:12.159Z,3.20
2023-05-17T09:08:40.341Z,3.37
2023-05-17T09:11:09.912Z,3.07
2023-05-17T09:13:38.864Z,3.50
2023-05-17T09:16:14.934Z,3.53
2023-05-17T09:18:42.982Z,3.50
2023-05-17T09:21:14.672Z,3.70
2023-05-17T09:23:45.250Z,3.20
2023-05-17T09:26:18.012Z,3.80
2023-05-17T09:28:47.898Z,3.40
2023-05-17T09:31:17.794Z,3.80
2023-05-17T09:33:46.651Z,3.10
2023-05-17T09:36:19.191Z,3.17
2023-05-17T09:38:54.110Z,3.20
2023-05-17T09:41:23.884Z,3.50
2023-05-17T09:43:52.108Z,2.97
2023-05-17T09:46:21.668Z,2.90
2023-05-17T09:48:54.957Z,3.23
2023-05-17T09:51:32.612Z,3.03
2023-05-17T09:54:01.346Z,2.90
2023-05-17T09:56:31.291Z,2.93
2023-05-17T09:59:00.757Z,3.60
2023-05-17T10:01:29.830Z,3.27
2023-05-17T10:04:02.654Z,2.90
2023-05-17T10:09:04.688Z,4.10
2023-05-17T10:11:36.294Z,3.43
2023-05-17T10:14:12.219Z,3.60
2023-05-17T10:16:40.615Z,3.37
2023-05-17T10:19:09.940Z,2.90
2023-05-17T10:21:39.151Z,3.30
2023-05-17T10:24:07.957Z,2.80
2023-05-17T10:26:38.549Z,3.50
2023-05-17T10:29:07.094Z,2.63
2023-05-17T10:31:36.424Z,2.30
2023-05-17T10:34:05.642Z,2.77
2023-05-17T10:36:34.889Z,2.50
2023-05-17T10:39:03.869Z,3.30
2023-05-17T10:41:34.720Z,2.80
2023-05-17T10:44:05.887Z,2.50
2023-05-17T10:46:33.941Z,2.97
2023-05-17T10:49:02.701Z,2.73
2023-05-17T10:51:33.005Z,2.97
2023-05-17T10:54:10.742Z,2.97
2023-05-17T10:56:42.573Z,2.63
2023-05-17T10:59:21.486Z,2.87
2023-05-17T11:01:59.948Z,2.43
2023-05-17T11:04:29.502Z,2.40
2023-05-17T11:07:27.169Z,2.27
2023-05-17T11:09:56.938Z,2.40
2023-05-17T11:12:33.913Z,1.80
2023-05-17T11:15:08.551Z,1.90
2023-05-17T11:17:38.150Z,2.80
2023-05-17T11:20:13.576Z,2.73
2023-05-17T11:22:42.922Z,2.43
2023-05-17T11:25:12.573Z,2.43
2023-05-17T11:27:46.446Z,2.73
2023-05-17T11:30:24.402Z,2.00
2023-05-17T11:32:53.491Z,2.23
2023-05-17T11:35:30.012Z,2.50
2023-05-17T11:38:13.718Z,2.93
2023-05-17T11:40:42.269Z,2.70
2023-05-17T11:43:15.010Z,3.20
2023-05-17T11:45:50.659Z,2.77
2023-05-17T11:48:22.408Z,2.90
2023-05-17T11:50:51.673Z,2.93
2023-05-17T11:53:20.364Z,2.70
2023-05-17T11:55:50.482Z,2.63
2023-05-17T11:58:19.395Z,2.47
2023-05-17T12:00:53.806Z,2.43
2023-05-17T12:03:22.643Z,2.50
2023-05-17T12:05:51.772Z,2.60
2023-05-17T12:08:20.909Z,2.87
2023-05-17T12:10:50.267Z,2.73
2023-05-17T12:13:18.493Z,2.57
2023-05-17T12:15:47.737Z,2.50
2023-05-17T12:18:17.474Z,2.60
2023-05-17T12:20:55.533Z,2.83
2023-05-17T12:23:33.987Z,2.60
2023-05-17T12:26:05.919Z,2.83
2023-05-17T12:28:34.301Z,2.60
2023-05-17T12:31:03.311Z,2.70
2023-05-17T12:33:34.183Z,2.50
2023-05-17T12:36:03.505Z,2.53
2023-05-17T12:38:33.280Z,2.60
2023-05-17T12:41:03.273Z,2.80
2023-05-17T12:43:31.856Z,3.00
2023-05-17T12:46:07.794Z,2.97
2023-05-17T12:48:38.011Z,2.60
2023-05-17T12:51:13.613Z,3.00
2023-05-17T12:53:42.547Z,2.70
2023-05-17T12:56:10.942Z,3.20
2023-05-17T12:58:39.132Z,3.07
2023-05-17T13:01:10.715Z,3.50
2023-05-17T13:03:40.549Z,2.63
2023-05-17T13:06:11.103Z,2.40
2023-05-17T13:08:39.377Z,2.50
2023-05-17T13:11:08.444Z,2.97
2023-05-17T13:13:36.789Z,2.80
2023-05-17T13:16:05.371Z,2.80
2023-05-17T13:18:35.621Z,2.83
2023-05-17T13:21:05.539Z,2.70
2023-05-17T13:23:33.735Z,2.33
2023-05-17T13:26:01.968Z,2.80
2023-05-17T13:28:30.182Z,2.70
2023-05-17T13:30:58.391Z,2.57
2023-05-17T13:33:27.817Z,2.63
2023-05-17T13:35:56.166Z,3.17
2023-05-17T13:38:25.767Z,2.73
2023-05-17T13:40:54.034Z,3.13
2023-05-17T13:43:22.281Z,2.93
2023-05-17T13:45:54.441Z,2.90
2023-05-17T13:48:22.755Z,2.50
2023-05-17T13:50:52.195Z,3.13
2023-05-17T13:53:20.403Z,3.40
2023-05-17T13:55:50.014Z,3.10
2023-05-17T13:58:18.230Z,2.80
2023-05-17T14:00:46.761Z,2.40
2023-05-17T14:03:15.517Z,3.07
2023-05-17T14:05:44.226Z,2.10
2023-05-17T14:08:12.767Z,2.50
2023-05-17T14:10:40.991Z,2.50
2023-05-17T14:13:11.774Z,2.83
2023-05-17T14:15:40.184Z,2.43
2023-05-17T14:18:09.031Z,2.70
2023-05-17T14:20:37.391Z,2.73
2023-05-17T14:23:05.971Z,2.73
2023-05-17T14:25:34.511Z,2.60
2023-05-17T14:28:02.724Z,2.23
2023-05-17T14:30:32.434Z,2.13
2023-05-17T14:33:00.865Z,2.63
2023-05-17T14:35:30.263Z,2.80
2023-05-17T14:37:58.462Z,2.40
2023-05-17T14:40:26.722Z,2.43
2023-05-17T14:42:54.975Z,2.57
2023-05-17T14:45:23.521Z,2.40
2023-05-17T14:47:53.105Z,2.20
2023-05-17T14:50:21.300Z,2.70
2023-05-17T14:52:49.518Z,2.40
2023-05-17T14:55:17.831Z,2.30
2023-05-17T14:57:46.146Z,2.33
2023-05-17T15:00:14.820Z,1.90
2023-05-17T15:02:43.059Z,1.73
2023-05-17T15:05:13.440Z,2.10
2023-05-17T15:07:41.837Z,2.50
2023-05-17T15:10:12.865Z,2.53
2023-05-17T15:12:41.098Z,1.87
2023-05-17T15:15:10.284Z,2.37
2023-05-17T15:17:38.501Z,2.47
2023-05-17T15:20:07.412Z,2.10
2023-05-17T15:22:37.558Z,2.40
2023-05-17T15:25:06.062Z,2.23
2023-05-17T15:27:34.306Z,2.17
2023-05-17T15:30:02.600Z,2.20
2023-05-17T15:32:31.059Z,2.20
2023-05-17T15:34:59.294Z,2.40
2023-05-17T15:37:27.671Z,2.30
2023-05-17T15:39:57.227Z,1.93
2023-05-17T15:42:25.425Z,2.10
2023-05-17T15:44:53.636Z,2.30
2023-05-17T15:47:26.150Z,2.07
2023-05-17T15:49:59.944Z,2.40
2023-05-17T15:52:28.235Z,2.20
2023-05-17T15:54:58.929Z,2.17
2023-05-17T15:57:27.175Z,2.00
2023-05-17T15:59:55.360Z,2.60
2023-05-17T16:02:24.454Z,2.53
2023-05-17T16:04:52.785Z,2.23
2023-05-17T16:07:21.015Z,2.53
2023-05-17T16:09:49.290Z,2.50
2023-05-17T16:12:18.892Z,2.23
2023-05-17T16:14:47.139Z,2.10
2023-05-17T16:17:15.451Z,2.00
2023-05-17T16:19:43.718Z,2.53
2023-05-17T16:22:12.459Z,2.70
2023-05-17T16:24:40.708Z,2.00
2023-05-17T16:27:08.928Z,2.27
2023-05-17T16:29:40.202Z,2.30
2023-05-17T16:32:08.732Z,2.40
2023-05-17T16:34:36.964Z,2.60
2023-05-17T16:37:05.111Z,2.37
2023-05-17T16:39:33.765Z,2.20
2023-05-17T16:42:01.664Z,2.47
2023-05-17T16:44:29.610Z,2.23
2023-05-17T16:46:58.913Z,2.40
2023-05-17T16:49:26.798Z,2.77
2023-05-17T16:51:54.662Z,2.40
2023-05-17T16:54:23.110Z,2.37
2023-05-17T16:56:51.009Z,2.53
2023-05-17T16:59:19.162Z,2.50
2023-05-17T17:01:47.143Z,2.33
2023-05-17T17:04:17.010Z,3.10
2023-05-17T17:06:44.990Z,2.00
2023-05-17T17:09:12.866Z,1.87
2023-05-17T17:11:41.051Z,2.80
2023-05-17T17:14:08.992Z,2.03
2023-05-17T17:16:36.944Z,2.47
2023-05-17T17:19:05.323Z,2.27
2023-05-17T17:21:36.480Z,2.13
2023-05-17T17:24:05.431Z,2.27
2023-05-17T17:26:35.168Z,2.60
2023-05-17T17:29:03.841Z,2.43
2023-05-17T17:31:31.900Z,2.27
2023-05-17T17:33:59.846Z,2.47
2023-05-17T17:36:27.746Z,2.80
2023-05-17T17:38:56.975Z,2.50
2023-05-17T17:41:24.984Z,2.73
2023-05-17T17:43:52.978Z,2.70
2023-05-17T17:46:20.952Z,2.47
2023-05-17T17:48:48.875Z,1.93
2023-05-17T17:51:16.749Z,2.10
2023-05-17T17:53:44.656Z,2.60
2023-05-17T17:56:13.855Z,2.40
2023-05-17T17:58:41.771Z,2.40
2023-05-17T18:01:09.838Z,2.73
2023-05-17T18:03:37.781Z,2.43
2023-05-17T18:06:06.069Z,2.53
2023-05-17T18:08:33.927Z,2.50
2023-05-17T18:11:02.297Z,2.80
2023-05-17T18:13:31.557Z,2.50
2023-05-17T18:15:59.603Z,2.50
2023-05-17T18:18:27.473Z,2.60
2023-05-17T18:20:55.558Z,2.30
2023-05-17T18:23:23.511Z,2.93
2023-05-17T18:25:51.414Z,2.67
2023-05-17T18:28:26.843Z,2.77
2023-05-17T18:31:07.188Z,2.80
2023-05-17T18:33:35.070Z,2.83
2023-05-17T18:36:02.947Z,2.67
2023-05-17T18:38:30.861Z,2.80
2023-05-17T18:40:58.773Z,2.53
2023-05-17T18:43:26.672Z,2.60
2023-05-17T18:45:54.544Z,2.77
2023-05-17T18:48:23.781Z,2.07
2023-05-17T18:50:51.753Z,2.60
2023-05-17T18:53:19.620Z,2.40
2023-05-17T18:55:47.520Z,2.80
2023-05-17T18:58:15.444Z,2.77
2023-05-17T19:00:45.203Z,2.40
2023-05-17T19:03:13.088Z,2.40
2023-05-17T19:05:42.336Z,2.60
2023-05-17T19:08:10.509Z,2.90
2023-05-17T19:10:38.382Z,2.87
2023-05-17T19:13:07.302Z,3.27
2023-05-17T19:15:35.539Z,2.93
2023-05-17T19:18:03.746Z,4.83
2023-05-17T19:20:32.313Z,2.27
2023-05-17T19:23:02.060Z,2.73
2023-05-17T19:25:30.285Z,3.30
2023-05-17T19:27:58.484Z,2.97
2023-05-17T19:30:26.866Z,2.80
2023-05-17T19:32:55.225Z,2.50
2023-05-17T19:35:23.424Z,2.60
2023-05-17T19:37:51.628Z,2.43
2023-05-17T19:40:22.176Z,2.50
2023-05-17T19:42:50.493Z,2.57
2023-05-17T19:45:18.706Z,2.77
2023-05-17T19:47:46.915Z,2.10
2023-05-17T19:50:15.430Z,2.90
2023-05-17T19:52:43.650Z,2.73
2023-05-17T19:55:11.943Z,2.77
2023-05-17T19:57:41.463Z,2.60
2023-05-17T20:00:10.843Z,2.70
2023-05-17T20:02:39.131Z,2.13
2023-05-17T20:05:07.706Z,2.73
2023-05-17T20:07:36.061Z,2.50
2023-05-17T20:10:04.367Z,2.77
2023-05-17T20:12:32.571Z,2.90
2023-05-17T20:15:02.172Z,2.27
2023-05-17T20:17:30.506Z,2.50
2023-05-17T20:19:58.730Z,3.10
2023-05-17T20:22:27.000Z,2.93
2023-05-17T20:24:57.813Z,2.67
2023-05-17T20:27:26.752Z,2.70
2023-05-17T20:29:54.958Z,2.90
2023-05-17T20:32:24.600Z,2.93
2023-05-17T20:34:52.884Z,2.73
2023-05-17T20:37:21.177Z,2.70
2023-05-17T20:39:49.395Z,2.40
2023-05-17T20:42:18.070Z,2.20
2023-05-17T20:44:48.042Z,2.73
2023-05-17T20:47:16.261Z,2.77
2023-05-17T20:49:45.850Z,2.70
2023-05-17T20:52:16.198Z,2.60
2023-05-17T20:54:46.253Z,3.57
2023-05-17T20:57:14.470Z,2.87
2023-05-17T20:59:42.758Z,2.67
2023-05-17T21:02:11.031Z,2.73
2023-05-17T21:04:39.272Z,3.10
2023-05-17T21:07:10.475Z,2.70
2023-05-17T21:09:38.830Z,3.33
2023-05-17T21:12:07.273Z,3.13
2023-05-17T21:14:35.531Z,3.07
2023-05-17T21:17:03.788Z,3.67
2023-05-17T21:19:32.123Z,2.80
2023-05-17T21:22:00.324Z,3.17
2023-05-17T21:24:29.900Z,3.37
2023-05-17T21:26:58.136Z,3.00
2023-05-17T21:29:26.468Z,2.97
2023-05-17T21:31:54.719Z,3.63
2023-05-17T21:34:22.925Z,3.03
2023-05-17T21:36:51.118Z,3.20
2023-05-17T21:39:19.321Z,3.60
2023-05-17T21:41:49.672Z,3.20
2023-05-17T21:44:17.930Z,3.93
2023-05-17T21:46:46.214Z,3.30
2023-05-17T21:49:14.436Z,4.03
2023-05-17T21:51:43.836Z,3.43
2023-05-17T21:54:12.045Z,3.57
2023-05-17T21:56:40.378Z,3.47
2023-05-17T21:59:09.957Z,3.33
2023-05-17T22:01:38.250Z,3.60
2023-05-17T22:04:07.174Z,3.70
2023-05-17T22:06:35.637Z,3.17
2023-05-17T22:09:06.034Z,3.07
2023-05-17T22:11:38.167Z,3.07
2023-05-17T22:14:07.497Z,3.63
2023-05-17T22:16:37.626Z,3.70
2023-05-17T22:19:06.898Z,3.87
2023-05-17T22:21:35.141Z,3.53
2023-05-17T22:24:03.363Z,3.90
2023-05-17T22:26:31.627Z,3.57
2023-05-17T22:28:59.823Z,4.00
2023-05-17T22:31:28.045Z,3.97
2023-05-17T22:33:57.602Z,3.93
2023-05-17T22:36:26.692Z,3.47
2023-05-17T22:38:56.602Z,3.33
2023-05-17T22:41:24.836Z,3.20
2023-05-17T22:43:53.053Z,3.80
2023-05-17T22:46:21.540Z,3.57
2023-05-17T22:48:50.121Z,2.87
2023-05-17T22:51:19.719Z,3.93
2023-05-17T22:53:48.033Z,3.40
2023-05-17T22:56:16.468Z,3.60
2023-05-17T22:58:44.654Z,3.80
2023-05-17T23:01:14.211Z,3.37
2023-05-17T23:03:42.642Z,3.40
2023-05-17T23:06:10.884Z,3.43
2023-05-17T23:08:41.961Z,3.57
2023-05-17T23:11:10.234Z,3.23
2023-05-17T23:13:38.538Z,3.93
2023-05-17T23:16:07.814Z,3.30
2023-05-17T23:18:38.131Z,3.33
2023-05-17T23:21:06.452Z,3.50
2023-05-17T23:23:34.683Z,2.87
2023-05-17T23:26:05.894Z,3.57
2023-05-17T23:28:34.108Z,3.03
2023-05-17T23:31:02.569Z,3.00
2023-05-17T23:33:31.572Z,3.50
2023-05-17T23:35:59.789Z,3.57
2023-05-17T23:38:28.069Z,3.67
2023-05-17T23:40:56.391Z,3.17
2023-05-17T23:43:26.269Z,3.30
2023-05-17T23:45:54.517Z,2.80
2023-05-17T23:48:25.712Z,3.57
2023-05-17T23:50:53.959Z,3.40
2023-05-17T23:53:23.533Z,3.27
2023-05-17T23:55:51.886Z,3.97
2023-05-17T23:58:20.613Z,3.27
